BAW779C ESSA-EGLL
Flight info
| Callsign | BAW779C |
|---|---|
| Flight time | 2h 9m |
| Altitude | 36000 |
| Route | ARS N623 BEDLA N866 LAPSI DCT UPGAS DCT TIPAN DCT WECOW DCT BINBO DCT AKOKO N866 BUKUT P7 BARMI BARMI1H |
| Aircraft | B752/M-SDE2E3FGHIJ3J4J7RWXY/LB1 |
Departure
| Time | 2026-05-05 06:57 |
|---|---|
| Airport | Stockholm-Arlanda Airport (ESSA) |
Arrival
| Time | 2026-05-05 09:06 |
|---|---|
| Airport | London Heathrow Airport (EGLL) |
| Time | Latitude | Longitude | Altitude | Speed | Heading |
|---|---|---|---|---|---|
| 2026-05-05 06:37 | 59.64339 | 17.92866 | 116 ft | 0 kts | 37° |
| 2026-05-05 06:51 | 59.64338 | 17.92865 | 115 ft | 1 kts | 37° |
| 2026-05-05 06:51 | 59.64326 | 17.92848 | 115 ft | 2 kts | 34° |
| 2026-05-05 06:52 | 59.64314 | 17.92831 | 115 ft | 2 kts | 36° |
| 2026-05-05 06:52 | 59.64302 | 17.92814 | 115 ft | 2 kts | 36° |
| 2026-05-05 06:52 | 59.64290 | 17.92797 | 115 ft | 2 kts | 36° |
| 2026-05-05 06:52 | 59.64278 | 17.92780 | 115 ft | 2 kts | 36° |
| 2026-05-05 06:53 | 59.64265 | 17.92763 | 116 ft | 2 kts | 36° |
| 2026-05-05 06:53 | 59.64260 | 17.92755 | 116 ft | 0 kts | 36° |
| 2026-05-05 06:54 | 59.64265 | 17.92757 | 116 ft | 1 kts | 5° |
| 2026-05-05 06:55 | 59.64274 | 17.92736 | 116 ft | 4 kts | 280° |
| 2026-05-05 06:55 | 59.64280 | 17.92612 | 116 ft | 13 kts | 275° |
| 2026-05-05 06:55 | 59.64314 | 17.92403 | 116 ft | 20 kts | 297° |
| 2026-05-05 06:55 | 59.64382 | 17.92146 | 114 ft | 21 kts | 297° |
| 2026-05-05 06:56 | 59.64407 | 17.91910 | 113 ft | 16 kts | 269° |
| 2026-05-05 06:56 | 59.64424 | 17.91677 | 111 ft | 14 kts | 285° |
| 2026-05-05 06:56 | 59.64473 | 17.91595 | 110 ft | 7 kts | 358° |
| 2026-05-05 06:56 | 59.64624 | 17.91645 | 109 ft | 55 kts | 10° |
| 2026-05-05 06:57 | 59.65291 | 17.91887 | 107 ft | 137 kts | 9° |
| 2026-05-05 06:57 | 59.66410 | 17.92306 | 379 ft | 185 kts | 8° |
| 2026-05-05 06:57 | 59.67710 | 17.92701 | 1424 ft | 193 kts | 354° |
| 2026-05-05 06:57 | 59.68918 | 17.91866 | 2158 ft | 196 kts | 317° |
| 2026-05-05 06:58 | 59.69606 | 17.89555 | 2888 ft | 202 kts | 277° |
| 2026-05-05 06:58 | 59.69503 | 17.86807 | 3685 ft | 209 kts | 263° |
| 2026-05-05 06:58 | 59.69214 | 17.83914 | 4247 ft | 227 kts | 253° |
| 2026-05-05 06:58 | 59.68556 | 17.80911 | 4854 ft | 245 kts | 249° |
| 2026-05-05 06:59 | 59.67870 | 17.77763 | 5571 ft | 256 kts | 250° |
| 2026-05-05 06:59 | 59.67196 | 17.74553 | 6580 ft | 255 kts | 251° |
| 2026-05-05 06:59 | 59.66531 | 17.71329 | 7530 ft | 256 kts | 251° |
| 2026-05-05 06:59 | 59.65877 | 17.68134 | 8450 ft | 257 kts | 251° |
| 2026-05-05 07:00 | 59.65221 | 17.64909 | 9461 ft | 254 kts | 251° |
| 2026-05-05 07:00 | 59.64565 | 17.61673 | 10267 ft | 258 kts | 251° |
| 2026-05-05 07:00 | 59.63884 | 17.58300 | 10694 ft | 275 kts | 251° |
| 2026-05-05 07:00 | 59.63160 | 17.54726 | 11098 ft | 291 kts | 251° |
| 2026-05-05 07:01 | 59.62380 | 17.50877 | 11448 ft | 309 kts | 251° |
| 2026-05-05 07:01 | 59.61578 | 17.46940 | 12156 ft | 313 kts | 251° |
| 2026-05-05 07:01 | 59.60775 | 17.43007 | 13012 ft | 312 kts | 251° |
| 2026-05-05 07:01 | 59.59965 | 17.39036 | 13811 ft | 313 kts | 251° |
| 2026-05-05 07:02 | 59.59163 | 17.35116 | 14649 ft | 312 kts | 251° |
| 2026-05-05 07:02 | 59.58351 | 17.31152 | 15309 ft | 316 kts | 250° |
| 2026-05-05 07:02 | 59.57523 | 17.27115 | 16039 ft | 318 kts | 250° |
| 2026-05-05 07:02 | 59.56699 | 17.23103 | 16704 ft | 321 kts | 249° |
| 2026-05-05 07:03 | 59.55858 | 17.19018 | 17399 ft | 323 kts | 249° |
| 2026-05-05 07:03 | 59.55022 | 17.14969 | 18118 ft | 324 kts | 249° |
| 2026-05-05 07:03 | 59.54166 | 17.10830 | 18633 ft | 329 kts | 249° |
| 2026-05-05 07:03 | 59.53309 | 17.06695 | 19294 ft | 331 kts | 249° |
| 2026-05-05 07:04 | 59.52433 | 17.02480 | 19892 ft | 334 kts | 249° |
| 2026-05-05 07:04 | 59.51553 | 16.98249 | 20480 ft | 336 kts | 249° |
| 2026-05-05 07:04 | 59.50662 | 16.93979 | 21035 ft | 339 kts | 249° |
| 2026-05-05 07:04 | 59.49769 | 16.89705 | 21497 ft | 345 kts | 249° |
| 2026-05-05 07:05 | 59.48862 | 16.85381 | 22148 ft | 344 kts | 249° |
| 2026-05-05 07:05 | 59.47948 | 16.81020 | 22608 ft | 348 kts | 249° |
| 2026-05-05 07:05 | 59.47021 | 16.76611 | 23136 ft | 351 kts | 249° |
| 2026-05-05 07:05 | 59.46088 | 16.72180 | 23614 ft | 354 kts | 249° |
| 2026-05-05 07:06 | 59.45157 | 16.67776 | 24122 ft | 356 kts | 249° |
| 2026-05-05 07:06 | 59.44200 | 16.63254 | 24584 ft | 359 kts | 249° |
| 2026-05-05 07:06 | 59.43243 | 16.58740 | 25046 ft | 361 kts | 249° |
| 2026-05-05 07:06 | 59.42268 | 16.54155 | 25458 ft | 365 kts | 249° |
| 2026-05-05 07:07 | 59.41296 | 16.49590 | 25909 ft | 367 kts | 248° |
| 2026-05-05 07:07 | 59.40317 | 16.45012 | 26365 ft | 369 kts | 248° |
| 2026-05-05 07:07 | 59.39321 | 16.40355 | 26783 ft | 371 kts | 249° |
| 2026-05-05 07:07 | 59.38325 | 16.35714 | 27124 ft | 375 kts | 249° |
| 2026-05-05 07:08 | 59.37314 | 16.31014 | 27566 ft | 377 kts | 248° |
| 2026-05-05 07:08 | 59.36289 | 16.26253 | 27967 ft | 379 kts | 248° |
| 2026-05-05 07:08 | 59.35269 | 16.21530 | 28307 ft | 383 kts | 248° |
| 2026-05-05 07:08 | 59.34233 | 16.16741 | 28698 ft | 385 kts | 248° |
| 2026-05-05 07:09 | 59.33178 | 16.11878 | 29079 ft | 387 kts | 248° |
| 2026-05-05 07:09 | 59.32132 | 16.07070 | 29456 ft | 388 kts | 248° |
| 2026-05-05 07:09 | 59.31078 | 16.02235 | 29778 ft | 391 kts | 248° |
| 2026-05-05 07:09 | 59.30000 | 15.97300 | 30094 ft | 394 kts | 248° |
| 2026-05-05 07:10 | 59.28934 | 15.92435 | 30470 ft | 395 kts | 248° |
| 2026-05-05 07:10 | 59.27840 | 15.87451 | 30721 ft | 399 kts | 248° |
| 2026-05-05 07:10 | 59.26759 | 15.82534 | 31001 ft | 401 kts | 248° |
| 2026-05-05 07:10 | 59.25653 | 15.77520 | 31385 ft | 400 kts | 248° |
| 2026-05-05 07:11 | 59.24556 | 15.72562 | 31738 ft | 401 kts | 248° |
| 2026-05-05 07:11 | 59.23465 | 15.67635 | 32097 ft | 400 kts | 248° |
| 2026-05-05 07:11 | 59.22349 | 15.62614 | 32400 ft | 401 kts | 248° |
| 2026-05-05 07:11 | 59.21252 | 15.57686 | 32753 ft | 400 kts | 248° |
| 2026-05-05 07:12 | 59.20155 | 15.52770 | 33086 ft | 399 kts | 248° |
| 2026-05-05 07:12 | 59.19047 | 15.47817 | 33404 ft | 399 kts | 248° |
| 2026-05-05 07:12 | 59.17947 | 15.42909 | 33698 ft | 399 kts | 248° |
| 2026-05-05 07:12 | 59.16833 | 15.37950 | 33919 ft | 400 kts | 248° |
| 2026-05-05 07:13 | 59.15727 | 15.33039 | 34206 ft | 399 kts | 247° |
| 2026-05-05 07:13 | 59.14611 | 15.28100 | 34501 ft | 398 kts | 247° |
| 2026-05-05 07:13 | 59.13500 | 15.23192 | 34691 ft | 399 kts | 247° |
| 2026-05-05 07:13 | 59.12384 | 15.18270 | 34899 ft | 398 kts | 247° |
| 2026-05-05 07:14 | 59.11279 | 15.13410 | 35027 ft | 399 kts | 247° |
| 2026-05-05 07:14 | 59.10148 | 15.08447 | 35186 ft | 400 kts | 247° |
| 2026-05-05 07:14 | 59.09023 | 15.03525 | 35311 ft | 401 kts | 247° |
| 2026-05-05 07:14 | 59.07891 | 14.98575 | 35466 ft | 402 kts | 247° |
| 2026-05-05 07:15 | 59.06755 | 14.93623 | 35567 ft | 404 kts | 247° |
| 2026-05-05 07:15 | 59.05615 | 14.88669 | 35752 ft | 403 kts | 247° |
| 2026-05-05 07:15 | 59.04480 | 14.83746 | 35796 ft | 399 kts | 247° |
| 2026-05-05 07:16 | 59.02215 | 14.73953 | 35805 ft | 404 kts | 247° |
| 2026-05-05 07:16 | 58.99903 | 14.64004 | 35809 ft | 404 kts | 247° |
| 2026-05-05 07:17 | 58.97601 | 14.54147 | 35802 ft | 405 kts | 247° |
| 2026-05-05 07:17 | 58.95283 | 14.44262 | 35812 ft | 405 kts | 247° |
| 2026-05-05 07:18 | 58.92937 | 14.34307 | 35820 ft | 406 kts | 246° |
| 2026-05-05 07:18 | 58.90132 | 14.24855 | 35827 ft | 408 kts | 240° |
| 2026-05-05 07:19 | 58.87152 | 14.15542 | 35836 ft | 409 kts | 240° |
| 2026-05-05 07:19 | 58.84160 | 14.06304 | 35853 ft | 410 kts | 240° |
| 2026-05-05 07:19 | 58.82647 | 14.01658 | 36009 ft | 410 kts | 240° |
| 2026-05-05 07:20 | 58.81126 | 13.97000 | 36163 ft | 411 kts | 240° |
| 2026-05-05 07:20 | 58.78070 | 13.87687 | 36398 ft | 412 kts | 240° |
| 2026-05-05 07:21 | 58.75001 | 13.78373 | 36595 ft | 415 kts | 240° |
| 2026-05-05 07:21 | 58.73460 | 13.73710 | 36722 ft | 416 kts | 240° |
| 2026-05-05 07:21 | 58.71904 | 13.69014 | 36835 ft | 417 kts | 240° |
| 2026-05-05 07:21 | 58.70351 | 13.64335 | 36956 ft | 417 kts | 240° |
| 2026-05-05 07:22 | 58.68801 | 13.59673 | 37080 ft | 418 kts | 240° |
| 2026-05-05 07:22 | 58.65677 | 13.50309 | 37298 ft | 419 kts | 240° |
| 2026-05-05 07:22 | 58.64101 | 13.45599 | 37410 ft | 420 kts | 240° |
| 2026-05-05 07:23 | 58.62527 | 13.40903 | 37518 ft | 420 kts | 240° |
| 2026-05-05 07:23 | 58.59367 | 13.31508 | 37682 ft | 422 kts | 239° |
| 2026-05-05 07:23 | 58.57787 | 13.26823 | 37815 ft | 417 kts | 239° |
| 2026-05-05 07:24 | 58.56212 | 13.22163 | 37882 ft | 417 kts | 239° |
| 2026-05-05 07:24 | 58.53062 | 13.12865 | 37855 ft | 421 kts | 239° |
| 2026-05-05 07:25 | 58.49877 | 13.03505 | 37878 ft | 421 kts | 239° |
| 2026-05-05 07:25 | 58.46704 | 12.94219 | 37912 ft | 420 kts | 239° |
| 2026-05-05 07:26 | 58.43514 | 12.84916 | 37907 ft | 421 kts | 239° |
| 2026-05-05 07:26 | 58.40302 | 12.75587 | 37881 ft | 420 kts | 239° |
| 2026-05-05 07:27 | 58.37098 | 12.66321 | 37906 ft | 420 kts | 239° |
| 2026-05-05 07:27 | 58.33891 | 12.57078 | 37882 ft | 419 kts | 239° |
| 2026-05-05 07:28 | 58.30698 | 12.47911 | 37895 ft | 419 kts | 239° |
| 2026-05-05 07:28 | 58.27485 | 12.38724 | 37877 ft | 420 kts | 239° |
| 2026-05-05 07:29 | 58.24239 | 12.29478 | 37880 ft | 421 kts | 238° |
| 2026-05-05 07:29 | 58.21003 | 12.20294 | 37881 ft | 422 kts | 238° |
| 2026-05-05 07:30 | 58.17751 | 12.11105 | 37896 ft | 421 kts | 238° |
| 2026-05-05 07:30 | 58.12879 | 11.97398 | 37861 ft | 421 kts | 238° |
| 2026-05-05 07:31 | 58.09614 | 11.88258 | 37877 ft | 421 kts | 238° |
| 2026-05-05 07:31 | 58.06348 | 11.79149 | 37871 ft | 421 kts | 238° |
| 2026-05-05 07:32 | 58.03061 | 11.70016 | 37895 ft | 422 kts | 238° |
| 2026-05-05 07:32 | 57.99774 | 11.60920 | 37901 ft | 422 kts | 238° |
| 2026-05-05 07:33 | 57.96478 | 11.51831 | 37833 ft | 421 kts | 238° |
| 2026-05-05 07:33 | 57.93180 | 11.42773 | 37863 ft | 423 kts | 238° |
| 2026-05-05 07:34 | 57.89863 | 11.33697 | 37886 ft | 425 kts | 237° |
| 2026-05-05 07:34 | 57.86521 | 11.24587 | 37900 ft | 426 kts | 237° |
| 2026-05-05 07:35 | 57.83147 | 11.15428 | 37886 ft | 425 kts | 237° |
| 2026-05-05 07:35 | 57.79805 | 11.06385 | 37918 ft | 426 kts | 237° |
| 2026-05-05 07:36 | 57.76422 | 10.97270 | 37899 ft | 427 kts | 237° |
| 2026-05-05 07:36 | 57.73064 | 10.88256 | 37903 ft | 425 kts | 237° |
| 2026-05-05 07:37 | 57.69680 | 10.79203 | 37923 ft | 428 kts | 237° |
| 2026-05-05 07:37 | 57.67970 | 10.74642 | 38045 ft | 428 kts | 237° |
| 2026-05-05 07:37 | 57.66285 | 10.70156 | 38174 ft | 428 kts | 237° |
| 2026-05-05 07:38 | 57.64569 | 10.65596 | 38291 ft | 429 kts | 237° |
| 2026-05-05 07:38 | 57.62855 | 10.61053 | 38393 ft | 429 kts | 237° |
| 2026-05-05 07:38 | 57.59426 | 10.51984 | 38617 ft | 429 kts | 237° |
| 2026-05-05 07:39 | 57.55984 | 10.42916 | 38781 ft | 431 kts | 237° |
| 2026-05-05 07:39 | 57.54260 | 10.38389 | 38917 ft | 430 kts | 237° |
| 2026-05-05 07:39 | 57.52541 | 10.33881 | 38979 ft | 431 kts | 237° |
| 2026-05-05 07:40 | 57.49066 | 10.24794 | 39180 ft | 432 kts | 237° |
| 2026-05-05 07:40 | 57.47333 | 10.20278 | 39313 ft | 431 kts | 237° |
| 2026-05-05 07:40 | 57.45604 | 10.15777 | 39331 ft | 433 kts | 237° |
| 2026-05-05 07:41 | 57.43869 | 10.11269 | 39487 ft | 432 kts | 237° |
| 2026-05-05 07:41 | 57.42121 | 10.06737 | 39558 ft | 432 kts | 237° |
| 2026-05-05 07:41 | 57.38643 | 9.97745 | 39690 ft | 433 kts | 237° |
| 2026-05-05 07:42 | 57.36895 | 9.93240 | 39805 ft | 433 kts | 237° |
| 2026-05-05 07:42 | 57.35125 | 9.88686 | 39862 ft | 432 kts | 237° |
| 2026-05-05 07:42 | 57.31659 | 9.79793 | 39925 ft | 429 kts | 237° |
| 2026-05-05 07:43 | 57.28154 | 9.70830 | 39929 ft | 430 kts | 237° |
| 2026-05-05 07:43 | 57.24676 | 9.61971 | 39934 ft | 431 kts | 237° |
| 2026-05-05 07:44 | 57.21169 | 9.53071 | 39947 ft | 431 kts | 237° |
| 2026-05-05 07:44 | 57.17639 | 9.44147 | 39944 ft | 431 kts | 237° |
| 2026-05-05 07:45 | 57.14118 | 9.35277 | 39941 ft | 431 kts | 236° |
| 2026-05-05 07:45 | 57.10586 | 9.26413 | 39952 ft | 431 kts | 236° |
| 2026-05-05 07:46 | 57.07053 | 9.17578 | 39957 ft | 431 kts | 236° |
| 2026-05-05 07:46 | 57.03512 | 9.08756 | 39943 ft | 431 kts | 236° |
| 2026-05-05 07:47 | 56.99961 | 8.99942 | 39941 ft | 432 kts | 236° |
| 2026-05-05 07:47 | 56.96399 | 8.91130 | 39928 ft | 431 kts | 236° |
| 2026-05-05 07:48 | 56.92847 | 8.82377 | 39935 ft | 432 kts | 236° |
| 2026-05-05 07:48 | 56.89283 | 8.73626 | 39936 ft | 430 kts | 236° |
| 2026-05-05 07:49 | 56.85704 | 8.64871 | 39933 ft | 431 kts | 236° |
| 2026-05-05 07:49 | 56.82138 | 8.56177 | 39946 ft | 431 kts | 236° |
| 2026-05-05 07:50 | 56.78558 | 8.47484 | 39948 ft | 432 kts | 236° |
| 2026-05-05 07:50 | 56.74953 | 8.38757 | 39944 ft | 432 kts | 236° |
| 2026-05-05 07:51 | 56.71350 | 8.30067 | 39959 ft | 432 kts | 235° |
| 2026-05-05 07:51 | 56.67725 | 8.21358 | 39964 ft | 433 kts | 235° |
| 2026-05-05 07:52 | 56.64103 | 8.12685 | 39961 ft | 433 kts | 235° |
| 2026-05-05 07:52 | 56.60470 | 8.04019 | 39965 ft | 433 kts | 235° |
| 2026-05-05 07:53 | 56.56839 | 7.95388 | 39969 ft | 434 kts | 235° |
| 2026-05-05 07:53 | 56.53173 | 7.86706 | 39968 ft | 434 kts | 235° |
| 2026-05-05 07:54 | 56.49530 | 7.78106 | 39970 ft | 434 kts | 235° |
| 2026-05-05 07:54 | 56.45861 | 7.69478 | 39964 ft | 435 kts | 235° |
| 2026-05-05 07:55 | 56.42169 | 7.60824 | 39966 ft | 435 kts | 235° |
| 2026-05-05 07:55 | 56.38480 | 7.52211 | 39965 ft | 435 kts | 235° |
| 2026-05-05 07:56 | 56.34810 | 7.43670 | 39965 ft | 436 kts | 235° |
| 2026-05-05 07:56 | 56.31089 | 7.35043 | 39956 ft | 436 kts | 235° |
| 2026-05-05 07:57 | 56.27380 | 7.26474 | 39971 ft | 437 kts | 234° |
| 2026-05-05 07:57 | 56.23651 | 7.17890 | 39970 ft | 437 kts | 234° |
| 2026-05-05 07:58 | 56.19909 | 7.09304 | 39972 ft | 437 kts | 234° |
| 2026-05-05 07:58 | 56.16174 | 7.00767 | 39968 ft | 437 kts | 234° |
| 2026-05-05 07:59 | 56.12434 | 6.92247 | 39968 ft | 438 kts | 234° |
| 2026-05-05 07:59 | 56.08678 | 6.83721 | 39967 ft | 438 kts | 234° |
| 2026-05-05 08:00 | 56.04910 | 6.75196 | 39971 ft | 437 kts | 234° |
| 2026-05-05 08:00 | 56.01164 | 6.66753 | 39972 ft | 438 kts | 234° |
| 2026-05-05 08:01 | 55.97374 | 6.58240 | 39971 ft | 438 kts | 234° |
| 2026-05-05 08:01 | 55.93591 | 6.49770 | 39966 ft | 439 kts | 234° |
| 2026-05-05 08:02 | 55.89801 | 6.41315 | 39968 ft | 439 kts | 234° |
| 2026-05-05 08:02 | 55.86000 | 6.32867 | 39970 ft | 439 kts | 233° |
| 2026-05-05 08:03 | 55.82185 | 6.24417 | 39974 ft | 439 kts | 233° |
| 2026-05-05 08:03 | 55.78378 | 6.16012 | 39976 ft | 439 kts | 233° |
| 2026-05-05 08:04 | 55.74552 | 6.07596 | 39974 ft | 439 kts | 233° |
| 2026-05-05 08:04 | 55.70729 | 5.99216 | 39974 ft | 439 kts | 233° |
| 2026-05-05 08:05 | 55.66890 | 5.90828 | 39974 ft | 440 kts | 233° |
| 2026-05-05 08:05 | 55.63049 | 5.82463 | 39974 ft | 440 kts | 233° |
| 2026-05-05 08:06 | 55.59185 | 5.74081 | 39972 ft | 440 kts | 233° |
| 2026-05-05 08:06 | 55.55328 | 5.65741 | 39980 ft | 441 kts | 233° |
| 2026-05-05 08:07 | 55.51466 | 5.57419 | 39985 ft | 441 kts | 233° |
| 2026-05-05 08:07 | 55.47591 | 5.49099 | 39979 ft | 441 kts | 233° |
| 2026-05-05 08:08 | 55.43691 | 5.40752 | 39978 ft | 441 kts | 233° |
| 2026-05-05 08:08 | 55.39812 | 5.32479 | 39982 ft | 442 kts | 232° |
| 2026-05-05 08:09 | 55.35898 | 5.24160 | 39982 ft | 443 kts | 232° |
| 2026-05-05 08:09 | 55.31995 | 5.15892 | 39980 ft | 442 kts | 232° |
| 2026-05-05 08:10 | 55.28075 | 5.07617 | 39983 ft | 443 kts | 232° |
| 2026-05-05 08:10 | 55.23544 | 5.00396 | 40004 ft | 447 kts | 216° |
| 2026-05-05 08:11 | 55.18273 | 4.94683 | 39986 ft | 449 kts | 213° |
| 2026-05-05 08:11 | 55.12842 | 4.89252 | 39991 ft | 449 kts | 212° |
| 2026-05-05 08:12 | 55.07372 | 4.83984 | 39988 ft | 450 kts | 211° |
| 2026-05-05 08:12 | 55.01902 | 4.78810 | 39993 ft | 451 kts | 211° |
| 2026-05-05 08:13 | 54.96419 | 4.73671 | 39993 ft | 451 kts | 211° |
| 2026-05-05 08:13 | 54.90909 | 4.68535 | 39984 ft | 451 kts | 211° |
| 2026-05-05 08:14 | 54.85392 | 4.63412 | 39987 ft | 451 kts | 211° |
| 2026-05-05 08:14 | 54.79878 | 4.58312 | 39989 ft | 451 kts | 211° |
| 2026-05-05 08:15 | 54.74374 | 4.53236 | 39983 ft | 451 kts | 211° |
| 2026-05-05 08:15 | 54.68850 | 4.48158 | 39985 ft | 451 kts | 210° |
| 2026-05-05 08:16 | 54.63359 | 4.43127 | 39978 ft | 451 kts | 210° |
| 2026-05-05 08:16 | 54.57815 | 4.38062 | 39975 ft | 451 kts | 210° |
| 2026-05-05 08:17 | 54.52296 | 4.33036 | 39980 ft | 452 kts | 210° |
| 2026-05-05 08:17 | 54.46749 | 4.28001 | 39979 ft | 452 kts | 210° |
| 2026-05-05 08:18 | 54.41204 | 4.22982 | 39978 ft | 452 kts | 210° |
| 2026-05-05 08:18 | 54.35692 | 4.18009 | 39975 ft | 452 kts | 210° |
| 2026-05-05 08:19 | 54.30155 | 4.13028 | 39980 ft | 452 kts | 209° |
| 2026-05-05 08:19 | 54.24581 | 4.08029 | 39984 ft | 452 kts | 209° |
| 2026-05-05 08:20 | 54.19041 | 4.03077 | 39983 ft | 452 kts | 209° |
| 2026-05-05 08:20 | 54.13500 | 3.98138 | 39982 ft | 453 kts | 209° |
| 2026-05-05 08:21 | 54.07925 | 3.93184 | 39981 ft | 454 kts | 209° |
| 2026-05-05 08:21 | 54.02366 | 3.88260 | 39985 ft | 453 kts | 209° |
| 2026-05-05 08:22 | 53.96782 | 3.83329 | 39984 ft | 452 kts | 209° |
| 2026-05-05 08:22 | 53.91230 | 3.78439 | 39985 ft | 452 kts | 209° |
| 2026-05-05 08:23 | 53.85684 | 3.73571 | 39976 ft | 451 kts | 209° |
| 2026-05-05 08:23 | 53.80117 | 3.68700 | 39982 ft | 453 kts | 209° |
| 2026-05-05 08:24 | 53.74549 | 3.63840 | 39979 ft | 453 kts | 209° |
| 2026-05-05 08:24 | 53.68956 | 3.58976 | 39980 ft | 454 kts | 209° |
| 2026-05-05 08:25 | 53.63369 | 3.54129 | 39980 ft | 454 kts | 209° |
| 2026-05-05 08:25 | 53.57782 | 3.49298 | 39975 ft | 454 kts | 209° |
| 2026-05-05 08:26 | 53.52194 | 3.44481 | 39974 ft | 454 kts | 209° |
| 2026-05-05 08:26 | 53.46589 | 3.39663 | 39974 ft | 454 kts | 209° |
| 2026-05-05 08:27 | 53.40984 | 3.34859 | 39967 ft | 453 kts | 208° |
| 2026-05-05 08:27 | 53.35378 | 3.30069 | 39978 ft | 454 kts | 208° |
| 2026-05-05 08:28 | 53.29778 | 3.25298 | 39974 ft | 455 kts | 208° |
| 2026-05-05 08:28 | 53.24162 | 3.20528 | 39980 ft | 455 kts | 208° |
| 2026-05-05 08:29 | 53.18544 | 3.15770 | 39978 ft | 456 kts | 208° |
| 2026-05-05 08:30 | 53.10090 | 3.08638 | 39976 ft | 456 kts | 208° |
| 2026-05-05 08:30 | 53.04465 | 3.03910 | 39971 ft | 456 kts | 208° |
| 2026-05-05 08:31 | 52.98809 | 2.99169 | 39967 ft | 455 kts | 208° |
| 2026-05-05 08:31 | 52.93184 | 2.94469 | 39963 ft | 455 kts | 208° |
| 2026-05-05 08:32 | 52.87571 | 2.89791 | 39965 ft | 456 kts | 208° |
| 2026-05-05 08:32 | 52.81921 | 2.85098 | 39963 ft | 455 kts | 208° |
| 2026-05-05 08:33 | 52.76270 | 2.80416 | 39965 ft | 456 kts | 208° |
| 2026-05-05 08:33 | 52.70609 | 2.75740 | 39971 ft | 456 kts | 208° |
| 2026-05-05 08:34 | 52.64974 | 2.71100 | 39972 ft | 456 kts | 208° |
| 2026-05-05 08:34 | 52.59301 | 2.66442 | 39972 ft | 457 kts | 208° |
| 2026-05-05 08:35 | 52.53657 | 2.61821 | 39969 ft | 455 kts | 208° |
| 2026-05-05 08:35 | 52.47995 | 2.57198 | 39964 ft | 456 kts | 207° |
| 2026-05-05 08:36 | 52.42355 | 2.52607 | 39968 ft | 456 kts | 208° |
| 2026-05-05 08:36 | 52.36664 | 2.47989 | 39967 ft | 456 kts | 208° |
| 2026-05-05 08:37 | 52.31067 | 2.43459 | 39947 ft | 443 kts | 208° |
| 2026-05-05 08:37 | 52.28335 | 2.41254 | 39924 ft | 430 kts | 208° |
| 2026-05-05 08:37 | 52.25689 | 2.39119 | 39650 ft | 423 kts | 208° |
| 2026-05-05 08:37 | 52.23085 | 2.37019 | 39005 ft | 426 kts | 207° |
| 2026-05-05 08:38 | 52.20441 | 2.34891 | 38442 ft | 423 kts | 206° |
| 2026-05-05 08:38 | 52.17824 | 2.32789 | 37937 ft | 421 kts | 207° |
| 2026-05-05 08:38 | 52.15212 | 2.30693 | 37605 ft | 420 kts | 206° |
| 2026-05-05 08:38 | 52.12644 | 2.28546 | 37209 ft | 415 kts | 211° |
| 2026-05-05 08:39 | 52.10284 | 2.25826 | 36657 ft | 415 kts | 221° |
| 2026-05-05 08:39 | 52.08274 | 2.22536 | 36122 ft | 415 kts | 227° |
| 2026-05-05 08:39 | 52.06363 | 2.19040 | 35655 ft | 413 kts | 227° |
| 2026-05-05 08:39 | 52.04463 | 2.15576 | 35063 ft | 414 kts | 227° |
| 2026-05-05 08:40 | 52.02576 | 2.12116 | 34433 ft | 414 kts | 227° |
| 2026-05-05 08:40 | 52.00660 | 2.08596 | 33648 ft | 416 kts | 228° |
| 2026-05-05 08:40 | 51.98752 | 2.05086 | 32940 ft | 417 kts | 228° |
| 2026-05-05 08:40 | 51.96845 | 2.01577 | 32194 ft | 417 kts | 229° |
| 2026-05-05 08:41 | 51.94947 | 1.98086 | 31457 ft | 418 kts | 229° |
| 2026-05-05 08:41 | 51.93027 | 1.94556 | 30593 ft | 420 kts | 229° |
| 2026-05-05 08:41 | 51.91127 | 1.91065 | 29822 ft | 416 kts | 229° |
| 2026-05-05 08:41 | 51.89233 | 1.87592 | 29134 ft | 412 kts | 229° |
| 2026-05-05 08:42 | 51.87329 | 1.84103 | 28508 ft | 415 kts | 229° |
| 2026-05-05 08:42 | 51.85419 | 1.80610 | 27916 ft | 416 kts | 228° |
| 2026-05-05 08:42 | 51.83518 | 1.77138 | 27352 ft | 414 kts | 228° |
| 2026-05-05 08:42 | 51.81631 | 1.73695 | 26806 ft | 409 kts | 228° |
| 2026-05-05 08:43 | 51.79754 | 1.70275 | 26286 ft | 406 kts | 228° |
| 2026-05-05 08:43 | 51.77896 | 1.66874 | 25783 ft | 405 kts | 230° |
| 2026-05-05 08:43 | 51.76297 | 1.63186 | 25288 ft | 406 kts | 240° |
| 2026-05-05 08:43 | 51.75136 | 1.59045 | 24784 ft | 406 kts | 250° |
| 2026-05-05 08:44 | 51.74459 | 1.54656 | 24109 ft | 409 kts | 260° |
| 2026-05-05 08:44 | 51.74119 | 1.50109 | 23460 ft | 404 kts | 262° |
| 2026-05-05 08:44 | 51.73808 | 1.45711 | 22818 ft | 398 kts | 262° |
| 2026-05-05 08:44 | 51.73506 | 1.41317 | 22191 ft | 393 kts | 263° |
| 2026-05-05 08:45 | 51.73215 | 1.36989 | 21587 ft | 390 kts | 263° |
| 2026-05-05 08:45 | 51.72924 | 1.32636 | 20993 ft | 389 kts | 262° |
| 2026-05-05 08:45 | 51.72639 | 1.28356 | 20412 ft | 386 kts | 262° |
| 2026-05-05 08:45 | 51.72352 | 1.24054 | 19827 ft | 382 kts | 263° |
| 2026-05-05 08:46 | 51.72073 | 1.19867 | 19261 ft | 378 kts | 263° |
| 2026-05-05 08:46 | 51.71792 | 1.15689 | 18703 ft | 375 kts | 263° |
| 2026-05-05 08:46 | 51.71514 | 1.11561 | 18152 ft | 374 kts | 263° |
| 2026-05-05 08:46 | 51.71233 | 1.07416 | 17609 ft | 372 kts | 263° |
| 2026-05-05 08:47 | 51.70952 | 1.03290 | 17051 ft | 370 kts | 263° |
| 2026-05-05 08:47 | 51.70673 | 0.99204 | 16503 ft | 367 kts | 263° |
| 2026-05-05 08:47 | 51.70392 | 0.95130 | 16012 ft | 361 kts | 264° |
| 2026-05-05 08:47 | 51.70120 | 0.91189 | 15961 ft | 353 kts | 264° |
| 2026-05-05 08:48 | 51.69844 | 0.87219 | 15975 ft | 364 kts | 264° |
| 2026-05-05 08:48 | 51.69563 | 0.83187 | 15970 ft | 364 kts | 264° |
| 2026-05-05 08:48 | 51.69281 | 0.79170 | 15966 ft | 361 kts | 264° |
| 2026-05-05 08:48 | 51.68998 | 0.75154 | 15968 ft | 363 kts | 264° |
| 2026-05-05 08:49 | 51.68714 | 0.71136 | 15965 ft | 363 kts | 264° |
| 2026-05-05 08:49 | 51.68425 | 0.67087 | 15966 ft | 362 kts | 264° |
| 2026-05-05 08:49 | 51.68137 | 0.63057 | 15966 ft | 362 kts | 264° |
| 2026-05-05 08:49 | 51.67856 | 0.59149 | 15952 ft | 344 kts | 263° |
| 2026-05-05 08:50 | 51.67585 | 0.55401 | 15954 ft | 326 kts | 263° |
| 2026-05-05 08:50 | 51.67333 | 0.51929 | 15951 ft | 306 kts | 264° |
| 2026-05-05 08:50 | 51.67090 | 0.48598 | 15958 ft | 303 kts | 264° |
| 2026-05-05 08:50 | 51.66836 | 0.45123 | 15828 ft | 320 kts | 264° |
| 2026-05-05 08:51 | 51.66575 | 0.41563 | 15591 ft | 318 kts | 264° |
| 2026-05-05 08:51 | 51.66318 | 0.38091 | 15360 ft | 311 kts | 264° |
| 2026-05-05 08:51 | 51.66061 | 0.34625 | 15132 ft | 309 kts | 263° |
| 2026-05-05 08:51 | 51.65806 | 0.31194 | 14921 ft | 310 kts | 263° |
| 2026-05-05 08:52 | 51.65551 | 0.27783 | 14711 ft | 311 kts | 263° |
| 2026-05-05 08:52 | 51.65291 | 0.24312 | 14499 ft | 309 kts | 263° |
| 2026-05-05 08:52 | 51.65033 | 0.20883 | 14293 ft | 307 kts | 263° |
| 2026-05-05 08:52 | 51.64778 | 0.17514 | 14095 ft | 305 kts | 263° |
| 2026-05-05 08:53 | 51.64537 | 0.14115 | 13892 ft | 305 kts | 265° |
| 2026-05-05 08:53 | 51.64355 | 0.10719 | 13597 ft | 306 kts | 265° |
| 2026-05-05 08:53 | 51.64171 | 0.07338 | 13286 ft | 304 kts | 266° |
| 2026-05-05 08:53 | 51.63985 | 0.03982 | 12980 ft | 301 kts | 266° |
| 2026-05-05 08:54 | 51.63801 | 0.00658 | 12678 ft | 300 kts | 266° |
| 2026-05-05 08:54 | 51.63614 | -0.02696 | 12381 ft | 300 kts | 266° |
| 2026-05-05 08:54 | 51.63428 | -0.06025 | 12084 ft | 299 kts | 266° |
| 2026-05-05 08:54 | 51.63240 | -0.09348 | 11784 ft | 298 kts | 266° |
| 2026-05-05 08:55 | 51.63052 | -0.12670 | 11484 ft | 296 kts | 266° |
| 2026-05-05 08:55 | 51.62928 | -0.14839 | 11291 ft | 295 kts | 266° |
| 2026-05-05 08:55 | 51.62679 | -0.19201 | 10900 ft | 294 kts | 266° |
| 2026-05-05 08:55 | 51.62490 | -0.22474 | 10606 ft | 292 kts | 266° |
| 2026-05-05 08:56 | 51.62304 | -0.25699 | 10318 ft | 291 kts | 266° |
| 2026-05-05 08:56 | 51.62119 | -0.28882 | 10032 ft | 286 kts | 266° |
| 2026-05-05 08:56 | 51.61934 | -0.32042 | 9766 ft | 277 kts | 266° |
| 2026-05-05 08:56 | 51.61756 | -0.35073 | 9509 ft | 276 kts | 266° |
| 2026-05-05 08:57 | 51.61575 | -0.38174 | 9253 ft | 278 kts | 266° |
| 2026-05-05 08:57 | 51.61393 | -0.41240 | 8992 ft | 278 kts | 266° |
| 2026-05-05 08:57 | 51.61209 | -0.44322 | 8723 ft | 276 kts | 266° |
| 2026-05-05 08:57 | 51.61027 | -0.47375 | 8461 ft | 275 kts | 266° |
| 2026-05-05 08:58 | 51.60844 | -0.50426 | 8193 ft | 275 kts | 266° |
| 2026-05-05 08:58 | 51.60660 | -0.53488 | 7927 ft | 273 kts | 266° |
| 2026-05-05 08:58 | 51.60477 | -0.56514 | 7662 ft | 272 kts | 266° |
| 2026-05-05 08:58 | 51.60293 | -0.59536 | 7397 ft | 272 kts | 266° |
| 2026-05-05 08:59 | 51.60110 | -0.62542 | 7137 ft | 271 kts | 266° |
| 2026-05-05 08:59 | 51.59924 | -0.65560 | 6871 ft | 270 kts | 266° |
| 2026-05-05 08:59 | 51.59741 | -0.68544 | 6388 ft | 275 kts | 266° |
| 2026-05-05 08:59 | 51.59553 | -0.71580 | 6141 ft | 269 kts | 266° |
| 2026-05-05 09:00 | 51.59368 | -0.74541 | 5972 ft | 260 kts | 266° |
| 2026-05-05 09:00 | 51.58894 | -0.77268 | 5710 ft | 260 kts | 241° |
| 2026-05-05 09:00 | 51.57653 | -0.79391 | 5264 ft | 266 kts | 211° |
| 2026-05-05 09:00 | 51.55907 | -0.80304 | 4815 ft | 268 kts | 181° |
| 2026-05-05 09:01 | 51.54055 | -0.80018 | 4376 ft | 270 kts | 170° |
| 2026-05-05 09:01 | 51.52208 | -0.79675 | 4086 ft | 263 kts | 174° |
| 2026-05-05 09:01 | 51.50472 | -0.79216 | 3836 ft | 250 kts | 154° |
| 2026-05-05 09:01 | 51.49138 | -0.77655 | 3674 ft | 229 kts | 123° |
| 2026-05-05 09:02 | 51.48308 | -0.75564 | 3530 ft | 219 kts | 115° |
| 2026-05-05 09:02 | 51.47726 | -0.73366 | 3219 ft | 212 kts | 93° |
| 2026-05-05 09:02 | 51.47695 | -0.71022 | 2983 ft | 205 kts | 86° |
| 2026-05-05 09:02 | 51.47691 | -0.68791 | 2681 ft | 201 kts | 86° |
| 2026-05-05 09:03 | 51.47690 | -0.66559 | 2384 ft | 197 kts | 86° |
| 2026-05-05 09:03 | 51.47695 | -0.64391 | 2102 ft | 193 kts | 86° |
| 2026-05-05 09:03 | 51.47702 | -0.62280 | 1826 ft | 185 kts | 86° |
| 2026-05-05 09:03 | 51.47708 | -0.60302 | 1566 ft | 169 kts | 86° |
| 2026-05-05 09:04 | 51.47714 | -0.58534 | 1355 ft | 153 kts | 85° |
| 2026-05-05 09:04 | 51.47720 | -0.56899 | 1146 ft | 140 kts | 86° |
| 2026-05-05 09:04 | 51.47722 | -0.55392 | 942 ft | 134 kts | 86° |
| 2026-05-05 09:04 | 51.47733 | -0.53901 | 784 ft | 137 kts | 86° |
| 2026-05-05 09:05 | 51.47741 | -0.52361 | 591 ft | 137 kts | 86° |
| 2026-05-05 09:05 | 51.47744 | -0.50838 | 412 ft | 138 kts | 87° |
| 2026-05-05 09:05 | 51.47750 | -0.49317 | 220 ft | 138 kts | 87° |
| 2026-05-05 09:05 | 51.47751 | -0.47790 | 107 ft | 136 kts | 87° |
| 2026-05-05 09:06 | 51.47758 | -0.46287 | 94 ft | 125 kts | 89° |
| 2026-05-05 09:06 | 51.47763 | -0.45198 | 93 ft | 51 kts | 89° |
| 2026-05-05 09:06 | 51.47731 | -0.44871 | 93 ft | 19 kts | 143° |
| 2026-05-05 09:06 | 51.47644 | -0.44786 | 93 ft | 5 kts | 167° |
| 2026-05-05 09:07 | 51.47607 | -0.44814 | 93 ft | 7 kts | 233° |
| 2026-05-05 09:07 | 51.47597 | -0.44923 | 93 ft | 13 kts | 269° |
| 2026-05-05 09:07 | 51.47597 | -0.45132 | 93 ft | 21 kts | 269° |
| 2026-05-05 09:07 | 51.47596 | -0.45372 | 93 ft | 21 kts | 270° |
| 2026-05-05 09:08 | 51.47596 | -0.45607 | 93 ft | 20 kts | 270° |
| 2026-05-05 09:08 | 51.47595 | -0.45845 | 93 ft | 22 kts | 269° |
| 2026-05-05 09:08 | 51.47594 | -0.46098 | 93 ft | 23 kts | 269° |
| 2026-05-05 09:08 | 51.47593 | -0.46342 | 93 ft | 20 kts | 269° |
| 2026-05-05 09:09 | 51.47592 | -0.46595 | 93 ft | 25 kts | 269° |
| 2026-05-05 09:09 | 51.47584 | -0.46859 | 93 ft | 22 kts | 263° |
| 2026-05-05 09:09 | 51.47581 | -0.47108 | 93 ft | 22 kts | 269° |
| 2026-05-05 09:09 | 51.47581 | -0.47353 | 93 ft | 21 kts | 269° |
| 2026-05-05 09:10 | 51.47580 | -0.47587 | 93 ft | 21 kts | 269° |
| 2026-05-05 09:10 | 51.47580 | -0.47819 | 93 ft | 20 kts | 270° |
| 2026-05-05 09:10 | 51.47579 | -0.48045 | 93 ft | 20 kts | 268° |
| 2026-05-05 09:10 | 51.47577 | -0.48252 | 93 ft | 15 kts | 269° |
| 2026-05-05 09:11 | 51.47574 | -0.48412 | 93 ft | 13 kts | 265° |
| 2026-05-05 09:11 | 51.47535 | -0.48469 | 93 ft | 7 kts | 193° |
| 2026-05-05 09:11 | 51.47478 | -0.48474 | 93 ft | 8 kts | 180° |
| 2026-05-05 09:11 | 51.47403 | -0.48475 | 93 ft | 11 kts | 179° |
| 2026-05-05 09:12 | 51.47335 | -0.48475 | 93 ft | 6 kts | 179° |
| 2026-05-05 09:12 | 51.47319 | -0.48494 | 93 ft | 4 kts | 250° |
| 2026-05-05 09:12 | 51.47316 | -0.48572 | 93 ft | 5 kts | 269° |
| 2026-05-05 09:12 | 51.47316 | -0.48589 | 93 ft | 0 kts | 269° |